Time;durP1;ratioP1;P1;durP2;ratioP2;P2;SDS_P1;SDS_P2;PMS_P1;PMS_P2;Temp;Humidity;BMP_temperature;BMP_pressure;BME280_temperature;BME280_humidity;BME280_pressure;Samples;Min_cycle;Max_cycle;Signal;HPM_P1;HPM_P2
2023/08/30 00:00:45;;;;;;;;;;;;;;;16.28;71.04;99766.19;4936670;29;1939;-86
2023/08/30 00:03:37;;;;;;;;;;;;;;;16.30;70.86;99757.78;4937000;29;1896;-85
2023/08/30 00:06:28;;;;;;;;;;;;;;;16.32;70.71;99756.41;4939648;29;1903;-86
2023/08/30 00:09:20;;;;;;;;;;;;;;;16.25;70.94;99752.34;4935846;29;1970;-86
2023/08/30 00:12:12;;;;;;;;;;;;;;;16.29;70.79;99751.50;4938666;29;2018;-88
2023/08/30 00:15:04;;;;;;;;;;;;;;;16.31;70.73;99746.63;4934682;29;2316;-88
2023/08/30 00:17:56;;;;;;;;;;;;;;;16.27;70.67;99748.28;4934980;29;1527;-88
2023/08/30 00:20:48;;;;;;;;;;;;;;;16.33;70.49;99744.44;4936149;29;1888;-88
2023/08/30 00:23:40;;;;;;;;;;;;;;;16.33;70.26;99751.78;4940202;29;1978;-88
2023/08/30 00:26:31;;;;;;;;;;;;;;;16.27;70.64;99744.75;4926173;29;1974;-88
2023/08/30 00:29:23;;;;;;;;;;;;;;;16.33;70.35;99743.66;4939427;29;2053;-88
2023/08/30 00:32:15;;;;;;;;;;;;;;;16.41;70.08;99743.03;4935909;29;1900;-89
2023/08/30 00:35:07;;;;;;;;;;;;;;;16.32;70.23;99748.28;4936285;29;1599;-88
2023/08/30 00:37:58;;;;;;;;;;;;;;;16.38;70.08;99745.50;4932027;29;2173;-86
2023/08/30 00:40:50;;;;;;;;;;;;;;;16.31;70.16;99746.63;4919872;29;2428;-86
2023/08/30 00:43:42;;;;;;;;;;;;;;;16.30;70.27;99749.63;4925990;29;2504;-89
2023/08/30 00:46:34;;;;;;;;;;;;;;;16.34;70.11;99748.78;4917628;29;2477;-90
2023/08/30 00:49:26;;;;;;;;;;;;;;;16.38;69.87;99745.50;4924818;29;2212;-87
2023/08/30 00:52:18;;;;;;;;;;;;;;;16.38;69.96;99753.66;4921168;29;2505;-86
2023/08/30 00:55:10;;;;;;;;;;;;;;;16.36;69.92;99762.09;4923773;29;2488;-89
2023/08/30 00:58:02;;;;;;;;;;;;;;;16.42;69.62;99758.28;4919690;29;2222;-87
2023/08/30 01:00:54;;;;;;;;;;;;;;;16.40;69.64;99765.88;4919510;29;2196;-89
2023/08/30 01:03:46;;;;;;;;;;;;;;;16.32;69.96;99761.84;4924327;29;2397;-89
2023/08/30 01:06:38;;;;;;;;;;;;;;;16.28;70.00;99763.47;4921850;29;2565;-89
2023/08/30 01:09:30;;;;;;;;;;;;;;;16.36;69.74;99756.69;4921356;29;2195;-88
2023/08/30 01:12:22;;;;;;;;;;;;;;;16.34;69.67;99753.41;4926060;29;2209;-87
2023/08/30 01:15:14;;;;;;;;;;;;;;;16.35;69.70;99753.16;4917613;29;2203;-89
2023/08/30 01:18:06;;;;;;;;;;;;;;;16.29;69.85;99761.56;4920368;29;2468;-90
2023/08/30 01:20:58;;;;;;;;;;;;;;;16.34;69.73;99758.84;4929866;29;2223;-88
2023/08/30 01:23:51;;;;;;;;;;;;;;;16.37;69.59;99752.03;4918652;29;2131;-87
2023/08/30 01:26:43;;;;;;;;;;;;;;;16.31;69.73;99740.38;4922952;29;2093;-88
2023/08/30 01:29:35;;;;;;;;;;;;;;;16.35;69.52;99749.59;4934281;29;2027;-88
2023/08/30 01:32:28;;;;;;;;;;;;;;;16.26;69.70;99748.53;4919247;29;2131;-88
2023/08/30 01:35:21;;;;;;;;;;;;;;;16.27;69.69;99756.44;4925708;29;2160;-87
2023/08/30 01:38:13;;;;;;;;;;;;;;;16.28;69.82;99757.25;4920115;29;2250;-87
2023/08/30 01:41:05;;;;;;;;;;;;;;;16.33;69.36;99752.59;4932156;29;2163;-87
2023/08/30 01:43:58;;;;;;;;;;;;;;;16.33;69.28;99766.19;4936178;29;1474;-88
2023/08/30 01:46:50;;;;;;;;;;;;;;;16.32;69.45;99767.28;4938031;29;1960;-90
2023/08/30 01:49:42;;;;;;;;;;;;;;;16.20;69.77;99768.66;4937932;29;2046;-89
2023/08/30 01:52:34;;;;;;;;;;;;;;;16.32;69.18;99761.00;4931185;29;1943;-89
2023/08/30 01:55:26;;;;;;;;;;;;;;;16.25;69.57;99768.66;4938727;29;1924;-89
2023/08/30 01:58:18;;;;;;;;;;;;;;;16.29;69.23;99756.94;4933851;29;1955;-89
2023/08/30 02:01:10;;;;;;;;;;;;;;;16.33;69.21;99757.22;4932793;29;2105;-89
2023/08/30 02:04:02;;;;;;;;;;;;;;;16.35;68.99;99755.03;4938874;29;1528;-90
2023/08/30 02:06:54;;;;;;;;;;;;;;;16.31;69.07;99760.22;4933912;29;4164;-90
2023/08/30 02:09:46;;;;;;;;;;;;;;;16.32;69.07;99756.41;4939181;29;1548;-90
2023/08/30 02:12:38;;;;;;;;;;;;;;;16.34;68.91;99754.22;4936091;29;1742;-89
2023/08/30 02:15:30;;;;;;;;;;;;;;;16.25;69.15;99758.59;4935320;29;1990;-89
2023/08/30 02:18:22;;;;;;;;;;;;;;;16.17;69.51;99761.06;4937364;29;2065;-91
2023/08/30 02:21:14;;;;;;;;;;;;;;;16.25;69.24;99757.78;4937695;29;1875;-88
2023/08/30 02:24:06;;;;;;;;;;;;;;;16.23;69.24;99757.25;4933236;29;3248;-91
2023/08/30 02:26:58;;;;;;;;;;;;;;;16.27;69.02;99755.63;4933539;29;1910;-89
2023/08/30 02:29:50;;;;;;;;;;;;;;;16.27;68.95;99756.44;4930246;29;2061;-89
2023/08/30 02:32:42;;;;;;;;;;;;;;;16.29;68.91;99750.69;4944815;29;1824;-91
2023/08/30 02:35:34;;;;;;;;;;;;;;;16.25;68.99;99753.16;4916408;29;1960;-91
2023/08/30 02:38:26;;;;;;;;;;;;;;;16.17;69.31;99752.91;4914540;29;2043;-90
2023/08/30 02:41:18;;;;;;;;;;;;;;;16.19;69.08;99754.28;4919038;29;1940;-89
2023/08/30 02:44:10;;;;;;;;;;;;;;;16.25;68.98;99755.06;4919647;29;1992;-90
2023/08/30 02:47:02;;;;;;;;;;;;;;;16.13;69.26;99750.75;4918964;29;2021;-91
2023/08/30 02:49:54;;;;;;;;;;;;;;;16.18;69.15;99755.38;4918336;29;2004;-90
2023/08/30 02:52:46;;;;;;;;;;;;;;;16.18;69.12;99759.97;4917071;29;1514;-91
2023/08/30 02:55:38;;;;;;;;;;;;;;;16.19;68.85;99762.44;4919486;29;1574;-93
2023/08/30 02:58:30;;;;;;;;;;;;;;;16.18;68.92;99765.41;4921235;29;1631;-90
2023/08/30 03:01:22;;;;;;;;;;;;;;;16.17;68.94;99764.59;4919068;29;1956;-91
2023/08/30 03:04:14;;;;;;;;;;;;;;;16.17;68.87;99756.44;4921254;29;1929;-90
2023/08/30 03:07:06;;;;;;;;;;;;;;;16.17;68.99;99752.91;4918411;29;1902;-90
2023/08/30 03:09:58;;;;;;;;;;;;;;;16.13;69.05;99758.09;4922108;29;1598;-89
2023/08/30 03:12:50;;;;;;;;;;;;;;;16.21;68.70;99749.38;4914389;29;2121;-91
2023/08/30 03:15:42;;;;;;;;;;;;;;;16.08;69.07;99756.19;4904972;29;2157;-91
2023/08/30 03:18:34;;;;;;;;;;;;;;;16.16;68.72;99757.53;4911054;29;2479;-93
2023/08/30 03:21:26;;;;;;;;;;;;;;;16.15;68.79;99755.09;4902556;29;2428;-91
2023/08/30 03:24:18;;;;;;;;;;;;;;;16.10;68.78;99759.47;4916506;29;2197;-92
2023/08/30 03:27:10;;;;;;;;;;;;;;;16.12;68.74;99751.84;4907434;29;2436;-91
2023/08/30 03:30:02;;;;;;;;;;;;;;;16.16;68.64;99759.44;4909027;29;2224;-91
2023/08/30 03:32:54;;;;;;;;;;;;;;;16.14;68.65;99751.56;4905626;29;2244;-90
2023/08/30 03:35:46;;;;;;;;;;;;;;;16.07;68.79;99749.16;4927277;29;2183;-89
2023/08/30 03:38:38;;;;;;;;;;;;;;;16.00;69.11;99751.34;4928202;29;2160;-89
2023/08/30 03:41:30;;;;;;;;;;;;;;;16.06;68.87;99749.41;4922727;29;2218;-89
2023/08/30 03:44:22;;;;;;;;;;;;;;;16.18;68.27;99744.50;4925897;29;2198;-90
2023/08/30 03:47:15;;;;;;;;;;;;;;;16.08;68.61;99748.03;4920701;29;2507;-92
2023/08/30 03:50:07;;;;;;;;;;;;;;;16.03;68.80;99745.38;4925605;29;2165;-90
2023/08/30 03:52:59;;;;;;;;;;;;;;;16.00;68.86;99739.66;4935493;29;2523;-91
2023/08/30 03:55:51;;;;;;;;;;;;;;;16.12;68.47;99745.63;4925332;29;2503;-92
2023/08/30 03:58:43;;;;;;;;;;;;;;;16.11;68.30;99738.53;4926420;29;2143;-90
2023/08/30 04:01:35;;;;;;;;;;;;;;;16.12;68.31;99737.47;4931136;29;2136;-90
2023/08/30 04:04:27;;;;;;;;;;;;;;;16.11;68.29;99741.25;4922025;29;2434;-92
2023/08/30 04:07:19;;;;;;;;;;;;;;;16.05;68.41;99740.44;4926167;29;2289;-90
2023/08/30 04:10:11;;;;;;;;;;;;;;;16.09;68.41;99738.00;4929949;29;2480;-90
2023/08/30 04:13:03;;;;;;;;;;;;;;;15.99;68.64;99738.03;4938243;29;1947;-89
2023/08/30 04:15:58;;;;;;;;;;;;;;;16.06;68.40;99743.97;4939726;29;1994;-91
2023/08/30 04:18:50;;;;;;;;;;;;;;;15.96;68.50;99752.97;4937512;29;1994;-90
2023/08/30 04:21:42;;;;;;;;;;;;;;;15.98;68.61;99748.09;4935914;29;1951;-90
2023/08/30 04:24:34;;;;;;;;;;;;;;;16.01;68.37;99741.28;4938289;29;1936;-90
2023/08/30 04:27:26;;;;;;;;;;;;;;;16.04;68.30;99746.16;4938749;29;1952;-91
2023/08/30 04:30:18;;;;;;;;;;;;;;;15.95;68.59;99745.91;4934965;29;2124;-91
2023/08/30 04:33:10;;;;;;;;;;;;;;;15.96;68.49;99749.44;4939230;29;2143;-90
2023/08/30 04:36:04;;;;;;;;;;;;;;;15.89;68.76;99750.53;4940884;29;4166;-92
2023/08/30 04:38:55;;;;;;;;;;;;;;;15.94;68.44;99744.28;4937146;29;2009;-90
2023/08/30 04:41:47;;;;;;;;;;;;;;;15.96;68.32;99744.81;4928537;29;2716;-90
2023/08/30 04:44:39;;;;;;;;;;;;;;;15.89;68.68;99742.41;4921500;29;2457;-90
2023/08/30 04:47:31;;;;;;;;;;;;;;;15.79;68.83;99742.41;4918587;29;2552;-90
2023/08/30 04:50:23;;;;;;;;;;;;;;;15.90;68.58;99743.19;4926736;29;2128;-92
2023/08/30 04:53:15;;;;;;;;;;;;;;;15.80;68.79;99735.09;4937117;29;2034;-90
2023/08/30 04:56:07;;;;;;;;;;;;;;;15.84;68.55;99749.72;4923160;29;2311;-91
2023/08/30 04:59:02;;;;;;;;;;;;;;;15.86;68.40;99745.66;4920557;29;2241;-91
2023/08/30 05:01:53;;;;;;;;;;;;;;;15.92;68.27;99751.09;4921899;29;2134;-92
2023/08/30 05:04:45;;;;;;;;;;;;;;;15.88;68.42;99750.81;4943680;29;1955;-90
2023/08/30 05:07:37;;;;;;;;;;;;;;;15.81;68.63;99750.28;4936744;29;2012;-92
2023/08/30 05:10:29;;;;;;;;;;;;;;;15.72;68.85;99744.59;4936262;29;1524;-93
2023/08/30 05:13:21;;;;;;;;;;;;;;;15.74;68.81;99756.00;4934510;29;2438;-88
2023/08/30 05:16:13;;;;;;;;;;;;;;;15.71;68.71;99759.25;4933312;29;2151;-89
2023/08/30 05:19:05;;;;;;;;;;;;;;;15.80;68.56;99756.81;4921717;29;2148;-92
2023/08/30 05:21:56;;;;;;;;;;;;;;;15.83;68.38;99754.34;4935949;29;2044;-90
2023/08/30 05:24:48;;;;;;;;;;;;;;;15.73;68.74;99765.22;4933082;29;2079;-90
2023/08/30 05:27:40;;;;;;;;;;;;;;;15.77;68.46;99770.94;4931939;29;2143;-90
2023/08/30 05:30:32;;;;;;;;;;;;;;;15.76;68.56;99766.56;4935093;29;1986;-91
2023/08/30 05:33:24;;;;;;;;;;;;;;;15.76;68.30;99764.66;4935409;29;2088;-91
2023/08/30 05:36:16;;;;;;;;;;;;;;;15.78;68.26;99756.25;4935450;29;2048;-91
2023/08/30 05:39:08;;;;;;;;;;;;;;;15.77;68.33;99763.59;4939245;29;1954;-89
2023/08/30 05:42:00;;;;;;;;;;;;;;;15.69;68.53;99763.31;4936589;29;2184;-94
2023/08/30 05:44:52;;;;;;;;;;;;;;;15.66;68.66;99761.94;4938486;29;1962;-90
2023/08/30 05:47:44;;;;;;;;;;;;;;;15.63;68.75;99752.44;4935808;29;2165;-90
2023/08/30 05:50:36;;;;;;;;;;;;;;;15.62;68.62;99761.69;4922142;29;2264;-91
2023/08/30 05:53:31;;;;;;;;;;;;;;;15.65;68.55;99758.41;4925927;29;2179;-92
2023/08/30 05:56:23;;;;;;;;;;;;;;;15.64;68.44;99748.63;4920622;29;2370;-89
2023/08/30 05:59:16;;;;;;;;;;;;;;;15.69;68.41;99755.19;4934193;29;2205;-90
2023/08/30 06:02:08;;;;;;;;;;;;;;;15.56;68.67;99754.63;4932986;29;2034;-90
2023/08/30 06:04:59;;;;;;;;;;;;;;;15.48;68.96;99760.59;4935294;29;1885;-89
2023/08/30 06:07:51;;;;;;;;;;;;;;;15.52;68.93;99752.72;4933815;29;1899;-89
2023/08/30 06:10:43;;;;;;;;;;;;;;;15.49;68.91;99747.81;4935352;29;2501;-89
2023/08/30 06:13:35;;;;;;;;;;;;;;;15.49;68.93;99754.06;4929655;29;2143;-89
2023/08/30 06:16:27;;;;;;;;;;;;;;;14.97;69.81;99758.63;4931484;29;2163;-75
2023/08/30 06:19:19;;;;;;;;;;;;;;;14.07;74.31;99809.41;4919883;29;2047;-83
2023/08/30 06:22:11;;;;;;;;;;;;;;;14.42;73.11;99754.63;4927022;29;2191;-82
2023/08/30 06:25:04;;;;;;;;;;;;;;;14.71;71.86;99748.81;4921077;29;2525;-81
2023/08/30 06:27:55;;;;;;;;;;;;;;;14.82;71.48;99757.75;4923382;29;2243;-81
2023/08/30 06:30:46;;;;;;;;;;;;;;;14.86;71.23;99754.25;4920921;29;2119;-81
2023/08/30 06:33:38;;;;;;;;;;;;;;;14.89;70.96;99751.03;4923114;28;2468;-81
2023/08/30 06:36:30;;;;;;;;;;;;;;;14.88;71.10;99754.81;4936576;29;2119;-80
2023/08/30 06:39:22;;;;;;;;;;;;;;;14.91;70.93;99754.28;4934150;29;2011;-80
2023/08/30 06:42:13;;;;;;;;;;;;;;;14.90;70.86;99752.63;4930863;29;1880;-81
2023/08/30 06:45:04;;;;;;;;;;;;;;;14.91;70.96;99765.13;4936081;29;2052;-81
2023/08/30 06:47:56;;;;;;;;;;;;;;;14.90;71.08;99762.66;4924873;29;2556;-80
2023/08/30 06:50:48;;;;;;;;;;;;;;;14.87;71.01;99769.44;4921292;29;2151;-80
2023/08/30 06:53:40;;;;;;;;;;;;;;;14.88;70.88;99775.66;4922154;29;2453;-80
2023/08/30 06:56:32;;;;;;;;;;;;;;;14.90;70.84;99779.75;4918982;29;2131;-81
2023/08/30 06:59:24;;;;;;;;;;;;;;;14.88;70.86;99779.22;4915932;29;2496;-80
2023/08/30 07:02:16;;;;;;;;;;;;;;;14.87;70.77;99776.75;4916724;29;2163;-79
2023/08/30 07:05:08;;;;;;;;;;;;;;;14.86;70.91;99767.81;4915259;29;3621;-80
2023/08/30 07:08:00;;;;;;;;;;;;;;;14.85;70.81;99766.16;4917957;29;3092;-80
2023/08/30 07:10:52;;;;;;;;;;;;;;;14.87;70.86;99772.16;4917019;29;2473;-81
2023/08/30 07:13:44;;;;;;;;;;;;;;;14.87;70.79;99774.06;4920535;29;2131;-81
2023/08/30 07:16:36;;;;;;;;;;;;;;;14.85;70.88;99766.16;4919339;29;2288;-81
2023/08/30 07:19:28;;;;;;;;;;;;;;;14.85;70.91;99766.16;4916993;29;2334;-79
2023/08/30 07:22:20;;;;;;;;;;;;;;;14.84;70.95;99766.44;4917559;29;2289;-78
2023/08/30 07:25:13;;;;;;;;;;;;;;;14.85;70.92;99770.78;4919327;29;2335;-80
2023/08/30 07:28:05;;;;;;;;;;;;;;;14.85;70.88;99765.34;4922860;29;2437;-79
2023/08/30 07:30:57;;;;;;;;;;;;;;;14.84;70.73;99772.69;4921838;29;2155;-79
2023/08/30 07:33:49;;;;;;;;;;;;;;;14.83;70.89;99764.84;4926741;29;2263;-80
2023/08/30 07:36:41;;;;;;;;;;;;;;;14.82;70.84;99768.59;4928990;29;2109;-80
2023/08/30 07:39:33;;;;;;;;;;;;;;;14.82;70.89;99764.00;4914089;29;4602;-78
2023/08/30 07:42:25;;;;;;;;;;;;;;;14.83;70.86;99762.13;4913672;29;3452;-80
2023/08/30 07:45:17;;;;;;;;;;;;;;;14.81;70.96;99767.78;4933361;29;2428;-80
2023/08/30 07:48:09;;;;;;;;;;;;;;;14.81;70.87;99767.78;4926430;29;2644;-81
2023/08/30 07:51:01;;;;;;;;;;;;;;;14.81;70.89;99767.78;4924102;29;2364;-79
2023/08/30 07:53:53;;;;;;;;;;;;;;;14.81;71.01;99758.84;4916870;29;3933;-80
2023/08/30 07:56:44;;;;;;;;;;;;;;;14.85;70.84;99765.34;4918291;29;3987;-78
2023/08/30 07:59:36;;;;;;;;;;;;;;;14.83;70.82;99767.53;4915037;29;4201;-79
2023/08/30 08:02:28;;;;;;;;;;;;;;;14.82;70.81;99764.00;4913474;29;4185;-78
2023/08/30 08:05:20;;;;;;;;;;;;;;;14.81;70.84;99761.56;4920246;29;3349;-79
2023/08/30 08:08:12;;;;;;;;;;;;;;;14.84;70.71;99758.31;4922899;29;2480;-79
2023/08/30 08:11:04;;;;;;;;;;;;;;;14.81;70.93;99765.09;4918510;29;3597;-78
2023/08/30 08:13:56;;;;;;;;;;;;;;;14.81;70.84;99765.09;4914918;29;3991;-79
2023/08/30 08:16:48;;;;;;;;;;;;;;;14.81;70.84;99759.66;4909296;29;4204;-78
2023/08/30 08:19:42;;;;;;;;;;;;;;;14.82;70.76;99764.00;4918755;29;4015;-81
2023/08/30 08:22:34;;;;;;;;;;;;;;;14.82;70.92;99764.00;4908970;29;4231;-80
2023/08/30 08:25:26;;;;;;;;;;;;;;;14.81;71.03;99772.41;4924358;29;2792;-79
2023/08/30 08:28:18;;;;;;;;;;;;;;;14.81;71.05;99781.34;4914454;29;2801;-80
2023/08/30 08:31:10;;;;;;;;;;;;;;;14.81;70.93;99775.13;4918406;29;2335;-79
2023/08/30 08:34:02;;;;;;;;;;;;;;;14.82;70.96;99780.25;4921965;29;2508;-80
2023/08/30 08:36:54;;;;;;;;;;;;;;;14.83;70.93;99776.47;4921219;29;2264;-80
2023/08/30 08:39:46;;;;;;;;;;;;;;;14.84;70.94;99771.88;4920569;29;3414;-79
2023/08/30 08:42:38;;;;;;;;;;;;;;;14.84;70.53;99769.97;4917374;29;2694;-81
2023/08/30 08:45:30;;;;;;;;;;;;;;;14.85;70.93;99773.50;4921706;29;2263;-80
2023/08/30 08:48:22;;;;;;;;;;;;;;;14.84;70.97;99769.97;4920871;29;2388;-79
2023/08/30 08:51:15;;;;;;;;;;;;;;;14.86;70.87;99780.56;4918348;29;2335;-79
2023/08/30 08:54:06;;;;;;;;;;;;;;;14.86;70.90;99777.84;4927160;29;2536;-80
2023/08/30 08:56:58;;;;;;;;;;;;;;;14.86;70.87;99778.66;4923487;29;2355;-80
2023/08/30 08:59:50;;;;;;;;;;;;;;;14.87;70.88;99771.34;4931717;29;3016;-80
2023/08/30 09:02:42;;;;;;;;;;;;;;;14.86;70.89;99767.00;4921503;29;2525;-78
2023/08/30 09:05:34;;;;;;;;;;;;;;;14.87;70.99;99760.50;4923191;29;2260;-79
2023/08/30 09:08:26;;;;;;;;;;;;;;;14.87;70.93;99768.63;4931680;29;1932;-78
2023/08/30 09:11:18;;;;;;;;;;;;;;;14.87;70.89;99768.63;4936174;29;1631;-78
2023/08/30 09:14:10;;;;;;;;;;;;;;;14.88;70.88;99773.78;4930381;29;1901;-80
2023/08/30 09:17:02;;;;;;;;;;;;;;;14.88;70.97;99773.78;4933985;29;1935;-80
2023/08/30 09:19:54;;;;;;;;;;;;;;;14.88;70.98;99770.25;4920267;29;2127;-82
2023/08/30 09:22:46;;;;;;;;;;;;;;;14.89;71.00;99777.31;4919046;29;2209;-80
2023/08/30 09:25:38;;;;;;;;;;;;;;;14.89;71.02;99770.00;4918691;29;2200;-80
2023/08/30 09:28:31;;;;;;;;;;;;;;;14.91;70.84;99775.13;4917746;29;2156;-78
2023/08/30 09:31:23;;;;;;;;;;;;;;;14.90;71.04;99777.03;4919630;29;2497;-79
2023/08/30 09:34:16;;;;;;;;;;;;;;;14.91;70.90;99772.41;4920836;29;2116;-79
2023/08/30 09:37:08;;;;;;;;;;;;;;;14.92;71.13;99764.03;4931275;29;2370;-78
2023/08/30 09:40:00;;;;;;;;;;;;;;;14.93;70.98;99768.38;4934320;29;2132;-80
2023/08/30 09:42:52;;;;;;;;;;;;;;;14.93;71.00;99765.66;4934857;29;2211;-79
2023/08/30 09:45:44;;;;;;;;;;;;;;;14.94;71.06;99761.03;4940306;29;1998;-79
2023/08/30 09:48:36;;;;;;;;;;;;;;;14.94;70.97;99767.31;4936452;28;2034;-77
2023/08/30 09:51:28;;;;;;;;;;;;;;;14.94;70.93;99767.31;4937780;29;2035;-79
2023/08/30 09:54:20;;;;;;;;;;;;;;;14.96;70.96;99772.44;4984234;23;2020;-79
2023/08/30 09:57:12;;;;;;;;;;;;;;;14.96;70.94;99775.16;4979889;28;1701;-78
2023/08/30 10:00:05;;;;;;;;;;;;;;;14.97;70.98;99766.78;4970730;28;1119;-78
2023/08/30 10:02:56;;;;;;;;;;;;;;;14.97;70.99;99769.47;4952559;28;2535;-78
2023/08/30 10:05:48;;;;;;;;;;;;;;;14.97;71.00;99772.19;4951830;28;2062;-78
2023/08/30 10:08:40;;;;;;;;;;;;;;;14.98;71.06;99771.09;4951915;29;1962;-78
2023/08/30 10:11:32;;;;;;;;;;;;;;;14.99;71.08;99763.78;4957029;28;1934;-79
2023/08/30 10:14:25;;;;;;;;;;;;;;;14.99;71.08;99770.00;4954348;28;1957;-79
2023/08/30 10:17:16;;;;;;;;;;;;;;;15.01;71.02;99766.22;4957385;28;1829;-79
2023/08/30 10:20:08;;;;;;;;;;;;;;;15.02;71.04;99773.28;4952088;28;1752;-79
2023/08/30 10:23:00;;;;;;;;;;;;;;;15.02;71.00;99771.38;4949972;28;1345;-79
2023/08/30 10:25:53;;;;;;;;;;;;;;;15.04;70.94;99771.94;4954340;28;2153;-79
2023/08/30 10:28:44;;;;;;;;;;;;;;;15.04;71.06;99765.69;4938378;28;2124;-79
2023/08/30 10:31:36;;;;;;;;;;;;;;;15.05;70.99;99767.31;4934955;28;2453;-78
2023/08/30 10:34:28;;;;;;;;;;;;;;;15.04;71.04;99761.09;4951075;28;1297;-79
2023/08/30 10:37:20;;;;;;;;;;;;;;;15.05;71.03;99768.13;4950129;28;2231;-78
2023/08/30 10:40:12;;;;;;;;;;;;;;;15.05;71.16;99765.41;4939078;28;2371;-79
2023/08/30 10:43:04;;;;;;;;;;;;;;;15.06;71.00;99758.94;4951656;28;1974;-77
2023/08/30 10:45:56;;;;;;;;;;;;;;;15.08;71.02;99766.78;4952402;28;1979;-80
2023/08/30 10:48:50;;;;;;;;;;;;;;;15.08;71.12;99773.00;4949591;28;1942;-80
2023/08/30 10:51:41;;;;;;;;;;;;;;;15.10;71.09;99773.56;4952407;28;2041;-78
2023/08/30 10:54:35;;;;;;;;;;;;;;;15.09;71.10;99773.81;4951619;28;1945;-79
2023/08/30 10:57:27;;;;;;;;;;;;;;;15.10;71.10;99770.84;4947240;28;2098;-78
2023/08/30 11:00:19;;;;;;;;;;;;;;;15.12;71.20;99773.31;4951905;28;2118;-77
2023/08/30 11:03:11;;;;;;;;;;;;;;;15.12;71.12;99763.28;4957038;28;2383;-78
2023/08/30 11:06:03;;;;;;;;;;;;;;;15.14;71.04;99774.66;4957546;28;2062;-78
2023/08/30 11:08:55;;;;;;;;;;;;;;;15.14;71.11;99765.69;4970690;28;2071;-77
2023/08/30 11:11:47;;;;;;;;;;;;;;;15.14;71.06;99771.94;4972280;28;1017;-77
2023/08/30 11:14:39;;;;;;;;;;;;;;;15.16;71.10;99777.91;4973272;28;1989;-78
2023/08/30 11:17:30;;;;;;;;;;;;;;;15.17;71.04;99773.28;4966058;28;2094;-77
2023/08/30 11:20:22;;;;;;;;;;;;;;;15.17;71.14;99770.59;4958776;28;2427;-77
2023/08/30 11:23:14;;;;;;;;;;;;;;;15.17;71.00;99774.09;4962647;28;2443;-76
2023/08/30 11:26:06;;;;;;;;;;;;;;;15.19;71.10;99779.28;4960218;28;2423;-78
2023/08/30 11:28:58;;;;;;;;;;;;;;;15.20;71.08;99778.19;4958187;28;2482;-80
2023/08/30 11:31:50;;;;;;;;;;;;;;;15.21;71.10;99782.53;4962852;28;2446;-77
2023/08/30 11:34:42;;;;;;;;;;;;;;;15.20;71.17;99783.59;4960760;28;2227;-77
2023/08/30 11:37:34;;;;;;;;;;;;;;;15.22;71.19;99787.69;4958227;28;2434;-78
2023/08/30 11:40:26;;;;;;;;;;;;;;;15.22;71.12;99787.69;4957585;28;2426;-78
2023/08/30 11:43:18;;;;;;;;;;;;;;;15.24;71.12;99787.44;4960306;28;2486;-77
2023/08/30 11:46:12;;;;;;;;;;;;;;;15.25;71.16;99791.75;4957436;28;2505;-78
2023/08/30 11:49:03;;;;;;;;;;;;;;;15.26;71.12;99793.38;4961026;28;2534;-77
2023/08/30 11:51:56;;;;;;;;;;;;;;;15.27;71.15;99786.09;4956518;28;2242;-77
2023/08/30 11:54:47;;;;;;;;;;;;;;;15.28;71.18;99787.69;4964007;28;2288;-77
2023/08/30 11:57:40;;;;;;;;;;;;;;;15.29;71.21;99782.00;4965487;28;2114;-76
2023/08/30 12:00:31;;;;;;;;;;;;;;;15.29;71.13;99783.88;4972041;28;1936;-78
2023/08/30 12:03:23;;;;;;;;;;;;;;;15.30;71.09;99785.53;4967426;28;1503;-78
2023/08/30 12:06:15;;;;;;;;;;;;;;;15.30;71.21;99777.41;4960530;28;2102;-78
2023/08/30 12:09:09;;;;;;;;;;;;;;;15.31;71.16;99777.13;4960439;28;2106;-76
2023/08/30 12:12:00;;;;;;;;;;;;;;;15.33;71.14;99779.56;4959782;28;2736;-77
2023/08/30 12:14:53;;;;;;;;;;;;;;;15.33;71.15;99777.66;4972707;28;2265;-77
2023/08/30 12:17:44;;;;;;;;;;;;;;;15.34;71.21;99773.06;4969327;28;2226;-78
2023/08/30 12:20:36;;;;;;;;;;;;;;;15.34;71.16;99778.47;4975196;28;2038;-79
2023/08/30 12:23:28;;;;;;;;;;;;;;;15.35;71.10;99778.22;4967756;28;1997;-78
2023/08/30 12:26:20;;;;;;;;;;;;;;;15.36;71.29;99776.31;4971489;28;2058;-78
2023/08/30 12:29:12;;;;;;;;;;;;;;;15.36;71.17;99776.31;4975532;28;1902;-79
2023/08/30 12:32:04;;;;;;;;;;;;;;;15.38;71.27;99774.97;4971810;28;2061;-78
2023/08/30 12:34:56;;;;;;;;;;;;;;;15.39;71.30;99776.59;4971402;28;2042;-78
2023/08/30 12:37:48;;;;;;;;;;;;;;;15.40;71.16;99774.69;4973490;28;2043;-76
2023/08/30 12:40:40;;;;;;;;;;;;;;;15.41;71.17;99769.00;4969682;28;1899;-80
2023/08/30 12:43:32;;;;;;;;;;;;;;;15.41;71.15;99771.72;4969981;28;1934;-78
2023/08/30 12:46:24;;;;;;;;;;;;;;;15.43;71.24;99766.00;4970111;28;2069;-76
2023/08/30 12:49:17;;;;;;;;;;;;;;;15.44;71.22;99768.47;4972335;28;2014;-77
2023/08/30 12:52:08;;;;;;;;;;;;;;;15.44;71.24;99762.19;4965813;28;2729;-77
2023/08/30 12:55:00;;;;;;;;;;;;;;;15.45;71.19;99761.94;4964643;28;2243;-77
2023/08/30 12:57:51;;;;;;;;;;;;;;;15.47;71.20;99763.56;4962541;28;2676;-77
2023/08/30 13:00:44;;;;;;;;;;;;;;;15.48;71.24;99762.50;4970768;28;2041;-77
2023/08/30 13:03:35;;;;;;;;;;;;;;;15.49;71.30;99773.06;4970867;28;1873;-77
2023/08/30 13:06:27;;;;;;;;;;;;;;;15.50;71.26;99765.72;4973683;28;1712;-77
2023/08/30 13:09:19;;;;;;;;;;;;;;;15.51;71.27;99760.03;4965006;28;2069;-79
2023/08/30 13:12:12;;;;;;;;;;;;;;;15.52;71.27;99758.94;4963935;28;2123;-78
2023/08/30 13:15:03;;;;;;;;;;;;;;;15.53;71.27;99760.59;4971048;28;1993;-77
2023/08/30 13:17:55;;;;;;;;;;;;;;;15.54;71.30;99756.78;4966802;28;1886;-76
2023/08/30 13:20:47;;;;;;;;;;;;;;;15.54;71.34;99756.78;4970784;28;2001;-77
2023/08/30 13:23:39;;;;;;;;;;;;;;;15.56;71.40;99756.50;4971522;28;1870;-76
2023/08/30 13:26:32;;;;;;;;;;;;;;;15.57;71.36;99761.66;4973375;28;1992;-77
2023/08/30 13:29:24;;;;;;;;;;;;;;;15.58;71.28;99757.06;4973037;28;2038;-78
2023/08/30 13:32:15;;;;;;;;;;;;;;;15.59;71.39;99751.38;4970783;28;2186;-77
2023/08/30 13:35:10;;;;;;;;;;;;;;;15.61;71.38;99759.22;4967197;28;1906;-78
2023/08/30 13:38:02;;;;;;;;;;;;;;;15.61;71.39;99757.31;4971766;28;1882;-78
2023/08/30 13:40:53;;;;;;;;;;;;;;;15.62;71.37;99752.72;4956629;28;2152;-78
2023/08/30 13:43:45;;;;;;;;;;;;;;;15.64;71.45;99753.25;4956066;28;2273;-77
2023/08/30 13:46:37;;;;;;;;;;;;;;;15.64;71.45;99753.25;4958438;28;2138;-78
2023/08/30 13:49:29;;;;;;;;;;;;;;;15.64;71.36;99756.75;4965892;28;2109;-78
2023/08/30 13:52:21;;;;;;;;;;;;;;;15.67;71.33;99758.13;4958694;28;2844;-77
2023/08/30 13:55:13;;;;;;;;;;;;;;;15.68;71.38;99757.09;4954321;28;3502;-77
2023/08/30 13:58:05;;;;;;;;;;;;;;;15.69;71.42;99760.63;4958267;28;2909;-76
2023/08/30 14:00:57;;;;;;;;;;;;;;;15.69;71.35;99757.91;4967487;28;2006;-78
2023/08/30 14:03:49;;;;;;;;;;;;;;;15.70;71.42;99754.91;4967060;28;2053;-77
2023/08/30 14:06:42;;;;;;;;;;;;;;;15.71;71.48;99753.03;4972998;28;1955;-77
2023/08/30 14:09:34;;;;;;;;;;;;;;;15.72;71.47;99755.44;4972584;28;1342;-77
2023/08/30 14:12:26;;;;;;;;;;;;;;;15.73;71.43;99756.25;4968999;28;2042;-76
2023/08/30 14:15:19;;;;;;;;;;;;;;;15.74;71.42;99757.91;4972912;28;2839;-76
2023/08/30 14:18:10;;;;;;;;;;;;;;;15.74;71.50;99758.72;4967839;28;2070;-77
2023/08/30 14:21:02;;;;;;;;;;;;;;;15.76;71.54;99755.72;4965759;28;2065;-76
2023/08/30 14:23:53;;;;;;;;;;;;;;;15.77;71.51;99757.34;4973348;28;2109;-77
2023/08/30 14:26:45;;;;;;;;;;;;;;;15.78;71.44;99756.25;4965679;28;1099;-77
2023/08/30 14:29:36;;;;;;;;;;;;;;;15.78;71.55;99751.63;4973946;28;993;-78
2023/08/30 14:32:28;;;;;;;;;;;;;;;15.79;71.55;99750.53;4972039;28;2110;-77
2023/08/30 14:35:21;;;;;;;;;;;;;;;15.80;71.57;99754.09;4972924;28;972;-78
2023/08/30 14:38:12;;;;;;;;;;;;;;;15.81;71.53;99751.09;4973616;28;2066;-77
2023/08/30 14:41:03;;;;;;;;;;;;;;;15.82;71.53;99760.03;4974740;28;1620;-77
2023/08/30 14:43:55;;;;;;;;;;;;;;;15.83;71.59;99753.53;4972853;28;2025;-76
2023/08/30 14:46:47;;;;;;;;;;;;;;;15.83;71.62;99751.63;4951674;28;2062;-77
2023/08/30 14:49:39;;;;;;;;;;;;;;;15.84;71.55;99755.16;4973498;28;2233;-78
2023/08/30 14:52:31;;;;;;;;;;;;;;;15.84;71.61;99750.53;4973193;28;2105;-79
2023/08/30 14:55:25;;;;;;;;;;;;;;;15.86;71.63;99753.00;4953836;28;3711;-76
2023/08/30 14:58:16;;;;;;;;;;;;;;;15.85;71.65;99752.19;4953290;28;2039;-77
2023/08/30 15:01:07;;;;;;;;;;;;;;;15.87;71.64;99746.47;4952107;28;2834;-78
2023/08/30 15:04:01;;;;;;;;;;;;;;;15.88;71.70;99756.22;4955155;29;2048;-79
2023/08/30 15:06:52;;;;;;;;;;;;;;;15.88;71.62;99750.81;4950940;28;2082;-77